Timeline UpdatesTrip UpdatesNews PostsPvt PostsTravel TipsAdmin PostsConv PostsFollowed PostsChat RequestsBlog PostsPNR Posts

Disclaimer
Search
 
 
Fri Aug 1, 2014 07:14:24 ISTHomeTrainsΣChainsAtlasPNRForumGalleryNewsFAQTripsMembersLoginFeedback
No Recent News for this Train
Other Trains in the News **new
Latest...
Will run till further notification #1151202
Mon Jun 30, 2014 (07:19PM)
⇐ Return Journey: Train# 13039

13040/Delhi-Howrah Janta Express (UnReserved)

Jun 30 2014 (7:18PM)
Change Departure Station:
Change Arrival Station:
Post a Train Travel TipPost a Train Travel Tip **new
Post a Comment/Question/Picture/VideoPost a Comment/Question/Picture/Video
Inaugural Run
Tue Oct 01, 1946
Pantry/Catering
✕ NO Pantry Car
✕ NO Catering
RSA - Rake Sharing
Rake/Coach Composition
All coaches having Unreserved.
Loco
HWH WAP-4
News    PNR    Forum    Time-Table    Availability    Fare Chart    Map    Arr/Dep History    Trips    Gallery    ΣChains    X/O    Timeline    
Travel Time: 25h 52m    75 halts    Distance: 996 km    Avg Speed: 38 km/hr
Type: Mail/Express
Zone: ER/Eastern
Departs @ 15:35 (Avg 4h 42m late)
Platform# 10
SMTWTFS
Old Delhi Junction/DLI 
Arrives @ 17:27 +1 night (Avg 7h 6m late)
Platform# ???
SMTWTFS
Rajendra Nagar Bihar/RJPB 

75 halts. 160 intermediate Stations between Old Delhi Junction and Rajendra Nagar Bihar

Show ALL intermediate Stations  Show Old Time-Table

#CodeStation NameX/OArrivesAvgDepartsAvgHaltPFDay#KmSpeedElevZoneAddress
1DLI»Old Delhi Junction (16)»  -15:35+4:421010.029219mNRNear Chandni Chowk Metro Station, Delhi NCT
2DSAShahdara Junction (4)  15:48+5:3515:50+5:372m216.352212mNRCircular Rd, Delhi NCT
3SBBSahibabad Junction (5)  15:58+7:0216:00+7:022m1113.245209mNRGhaziabad, Uttar Pradesh
4GZBGhaziabad Junction (6)X  16:09+5:0616:11+5:172m2119.946217mNRGhaziabad, Uttar Pradesh
5MIUMaripat (2)X  16:24+6:2816:25+6:381m--129.958213mNCRNational Highway 91, Uttar Pradesh
6DERDadri (3)  16:32+6:4516:33+6:451m2136.769210mNCR203207, Uttar Pradesh
7AJRAjaibpur (2)XO  16:41+6:5416:42+6:561m--145.862207mNCRGreater Noida, Uttar Pradesh
8DKDEDankaur (3)OO  16:50+6:5516:51+7:041m--154.190209mNCRShyam Nagar Mandi, Uttar Pradesh
9WAIRWair (2)  16:57+7:0016:58+7:061m1163.149203mNCRBulandshahr District, Uttar Pradesh
10CHLChola (3)XO  17:04+7:0717:05+7:081m--168.089204mNCRTahsil Bulandshahar, Uttar Pradesh
11SKQSikandarpur (2)  17:11+7:1317:12+7:081m--176.949199mNCRMDR 70W, Uttar Pradesh
12KRJKhurja Junction (4)  17:19+7:0917:20+7:121m2182.648199mNCRBulandshahr, Uttar Pradesh
13DARDanwar (2)X  17:34+7:1217:35+7:181m--193.768198mNCRDanwar, Uttar Pradesh
14SOMSomna (2)O  17:44+7:1917:45+7:251m--1104.068195mNCRNational Highway 91, Uttar Pradesh
15KLAKulwa (2)XO  17:54+7:2117:55+7:211m--1114.151190mNCRAligarh, Uttar Pradesh
16ALJNAligarh Junction (4)O  18:09+5:5718:10+6:001m21126.149192mNCRAligarh, Uttar Pradesh
17MXKMandrak (2)XO  18:27+7:2918:28+7:311m--1139.988190mNCRNational Highway 93, Uttar Pradesh
18SNSSasni (3)O  18:33+7:2618:34+7:401m--1147.349185mNCRSasni, Uttar Pradesh
19HRSHathras Junction (3)XOO  18:45+7:3918:50+7:375m11156.271183mNCRMahamaya Nagar(05722-242803), Uttar Pradesh
20JLSJalesar Road (1)  19:07+7:4319:08+7:401m11176.366172mNCRMDR 106W, Uttar Pradesh
21BRNBarhan Junction  19:20+7:2419:21+7:291m--1189.57173mNCRJN Point-Tundle/Aligarh/Etah, Uttar Pradesh
22TDLTundla Junction (5)O  21:33+7:0021:43+7:0010m31204.266167mNCRDistt.Firozabad, Uttar Pradesh
23FZDFirozabad (4)XO  21:58+7:0221:59+7:001m21220.721164mNCRFirozabad, Uttar Pradesh
24SKBShikohabad Junction (4)X  22:55+6:3423:00+6:375m21240.658166mNCRDistrict Firozabad, Uttar Pradesh
25JGRJaswantnagar (2)  23:41+6:3923:42+6:411m--1280.025154mNCRJaswantnagar, Uttar Pradesh
26ETWEtawah (5)XO  00:20+6:1300:25+6:135m32296.085154mNCRDistt. Etawah, Uttar Pradesh
27BNTBharthana (3)XO  00:39+6:2800:40+6:301m--2315.969147mNCRBharthana, Uttar Pradesh
28ULDAchalda (3)X  00:57+6:2300:58+6:261m--2335.463147mNCRDist. Auraiya(05688-1072), Uttar Pradesh
29PHDPhaphund (4)XO  01:14+6:2401:15+6:251m--2352.229146mNCRdist. Auraiya, Uttar Pradesh
30JJKJhinjhak (3)X  01:56+6:1101:57+6:121m22372.052140mNCRAuraiya, Uttar Pradesh
31RURARura (4)X  02:19+6:0302:20+6:071m--2391.033137mNCRJhinjhak, Uttar Pradesh
32CNBKanpur Central (10)X  03:40+5:2003:50+5:2210m42435.460128mNCRKANPUR-208 001, Uttar Pradesh
33BKOBindki RoadXO  04:36+6:3404:38+6:352m--2481.770124mNCRFatehpur, Uttar Pradesh
34FTPFatehpur (3)XO  05:05+6:2205:10+6:245m--2513.083120mNCRFatehpur, Uttar Pradesh
35KGAKhaga (3)X  05:35+6:5205:40+6:525m--2547.774114mNCRFatehpur, Uttar Pradesh
36SROSirathu (2)XO  06:00+6:5406:05+6:525m12572.574109mNCRSirathu, Uttar Pradesh
37SJTShujaatpurO  06:13+6:4906:18+6:455m--2582.377107mNCRNational Highway 2, Uttar Pradesh
38BREBharwari  06:26+6:5106:28+6:442m--2592.657108mNCRBharwari, Uttar Pradesh
39SYWNSaiyid SarawanXO  06:44+6:4206:45+6:451m--2607.916106mNCR212203 ?, Uttar Pradesh
40MREManauriO  07:02+6:4007:03+6:411m--2612.558105mNCRSabderganj-Fatehpur Rd, Uttar Pradesh
41SFGSubedarGanj (3)XO  07:17+6:3907:18+6:471m--2625.97100mNCRAllahabad, Uttar Pradesh
42ALDAllahabad Junction (10)XO  07:50+6:0608:00+6:1610m62629.747100mNCRAllahabad 211003, Uttar Pradesh
43NYNNaini Junction (4)  08:09+7:0608:11+7:122m12636.84998mNCRAllahabad, Uttar Pradesh
44KCNKarchanaXO  08:24+6:5708:25+6:481m--2647.47294mNCRKarchana, Uttar Pradesh
45MJAMeja Road (4)X  08:42+7:0608:43+7:071m--2667.83294mNCRDistrict Allahabad, Uttar Pradesh
46UNDUnchdihO  08:58+7:1108:59+7:021m--2676.04494mNCRUnchdih, Uttar Pradesh
47MNFManda Road  09:10+6:5309:15+6:565m--2684.05693mNCRNH 76, Uttar Pradesh
48JIAJigna (1)X  09:24+7:0909:25+7:041m12692.45994mNCRNational Highway 76, Uttar Pradesh
49GAEGaipura (4)XO  09:32+7:0809:33+7:021m--2699.26286mNCRGaipura, Uttar Pradesh
50BDLVindhyachal (3)XO  09:45+7:1409:46+6:551m--2711.51988mNCRMirzapur, Uttar Pradesh
51MZPMirzapur (3)X  10:09+6:3010:10+6:261m--2718.94788mNCRMirzapur, Uttar Pradesh
52CARChunar Junction (5)XO  10:50+7:1710:55+7:075m22750.25785mNCRChunar Junction, Uttar Pradesh
53KYTKailahat (4)O  11:05+7:2511:06+7:291m--2759.63283mNCRKailahat, Uttar Pradesh
54ARWAhraura Road (4)O  11:22+7:3411:23+7:361m--2768.12285mNCRDist. Mirzapur - 231305, Uttar Pradesh
55MGSMughal Sarai Junction (8)  12:00+6:2912:15+6:2715m22781.95083mECRMughalsarai 232101, Uttar Pradesh
56SLDSakaldiha (2)O  12:37+7:2712:38+7:281m--2800.18281mECRState Highway 69, Uttar Pradesh
57ZNAZamania (2)X  12:57+7:3212:58+7:331m--2826.15877mECRGhazipur, Uttar Pradesh
58DLNDildarnagar Junction (2)  13:12+7:0713:14+7:082m--2839.67972mECRDildarnagar, Uttar Pradesh
59BWHBhadaura (2)O  13:20+7:3813:21+7:391m--2847.55569mECRGhazipur, Uttar Pradesh
60GMRGahmar (2)  13:30+7:1513:31+7:171m--2855.66968mECRDistt: Ghazipur, Uttar Pradesh
61CSAChausa (2)X  13:39+7:3213:40+7:351m--2864.96668mECRState Highway 14, Bihar
62BXRBuxar (3)XO  13:50+6:2613:55+6:255m--2875.88267mECRBuxar, Bihar
63DUREDumraon (3)XO  14:07+7:2914:08+7:301m--2892.15170mECRDumraon, Bihar
64TWGTwining Ganj  14:17+7:2014:18+7:241m--2899.77270mECRArrah Buxar Rd, Bihar
65RPRRaghunathpur (4)XO  14:25+7:2214:26+7:231m--2908.15969mECRRaghunathpur, Bihar
66BYNBanahi (2)X  14:35+7:5214:36+7:521m--2917.04467mECRBanahi, Bihar
67BEABihiya (3)O  14:44+7:0714:45+7:081m--2922.96367mECRBehea, Bihar
68KRSKarisath (2)XO  14:56+7:4214:57+7:451m--2934.42065mECRKarisath, Bihar
69ARAAra Junction (3)O  15:27+7:2515:29+7:252m--2944.39963mECRarrah( 06182-233411), Bihar
70KUAKulharia (2)XO  15:35+7:3115:36+7:361m--2954.23661mECRChandi Sahar Rd, Bihar
71KWRKoelwar (2)  15:42-15:43-1m--2957.84865mECRNational Highway 30, Bihar
72BTABihta (2)  15:54+7:3815:55+7:431m--2966.53662mECRDistt: Patna, Bihar
73SDESadisopur (2)O  16:02-16:03-1m--2970.75364mECRSadisopur, Bihar
74NEONeora (2)X  16:11+7:2616:12+7:331m--2977.82061mECRNational Highway 98, Bihar
75DNRDanapur (5)XO  16:30+7:2716:40+7:2710m--2983.81958mECRKhagaul, Bihar
76PNBEPatna Junction (10)X  17:10+7:3817:20+7:4010m--2993.22257mECRPatna 800001, Bihar
77RJPB•Rajendra Nagar Bihar (4)•X  17:27+7:0617:29+7:072m--2995.85155mECRPatna 800001, Bihar
78GZHGulzarbagh (3)  17:34+7:3317:36+7:332m--21000.12655mECRPatna, Bihar
79PNCPatna Saheb (3)  17:43+7:3717:45+7:392m--21003.14659mECRPatna, Bihar
80BKGBanka Ghat (2)O  17:53+7:3417:54+7:351m--21009.36156mECRPatna, Bihar
81FUTFatwa (6)X  18:00+7:0518:01+7:081m--21015.35653mECRPatna, Bihar
82KOOKhusropur (2)  18:10+7:4918:11+7:511m--21023.87152mECRPatna, Bihar
83KWOKarauta (2)XO  18:18-18:19-1m--21032.03654mECRKarauta, Bihar
84SMBHSalim Pur Bihar  18:23-18:24-1m--21034.46852mECRSalim Pur, Bihar
85TKBGTeka Bigha HaltXO  18:28-18:29-1m--21039.01651mECRTeka Bigha, Bihar
86BKPBakhtiyarpur Junction (5)O18:45+7:1819:05+7:4220m--21043.27851mECRPatna, Bihar
87ATLAthmal Gola (2)  19:12+7:4219:13+7:421m--21052.26952mECRPatna, Bihar
88BARHBarh (3)O  19:21+7:3619:22+7:381m--21061.46949mECRBarh, Bihar
89PHKPunarakh  19:31+7:4619:33+7:452m--21071.83251mECRPunarakh, Bihar
90MMKBMemrakhabadXO  19:38-19:39-1m--21074.53449mECRMor, Bihar
91KNHPKanhaipurO  19:43-19:44-1m--21076.74047mECRMor, Bihar
92MORMor  19:49+7:4219:50+7:341m--21080.14846mECRMor, Bihar
93MKAMokama Junction (3)  19:59+7:3520:01+7:382m--21087.34648mECRPatna, Bihar
94ANAHAunta HaltO  20:06-20:07-1m--21091.15444mECRPanchmahla, Bihar
95HTZHathidah Junction (2)XO  20:12+7:2720:13+7:281m121095.71850mECRMusahari, Bihar
96RDUMRampur Dumra (3)XO  20:26+7:3920:27+7:391m--21099.53346mECRNational Highway 80, Bihar
97BRYABarhiya (3)  20:37+7:3820:38+7:381m--21105.05147mECRBarahiya, Bihar
98DMRXDumri Halt (1)O  20:43-20:44-1m121109.33949mECRNational Highway 80, Bihar
99MKBMankatha  20:52+7:3720:53+7:241m--21114.65647mECRNational Highway 80, Bihar
100LKRLuckeesarai Junction (2)  20:59+7:2821:00+7:291m--21120.1852mECRLakhisarai, Bihar
101KIULKiul Junction (5)  21:10+7:0721:12+7:072m--21121.53353mECRDist. Lakhisarai, Bihar
102BSQPBansipurXO  21:20+7:0721:21+7:071m--21125.92253mECRKiul, Bihar
103MNPMananpur (2)O  21:28+7:0821:29+7:081m--21128.42657mECRState Highway 18, Bihar
104BFMBhaluiX  21:35+7:0821:36+7:091m--21131.013356mECRState Highway 18, Bihar
105JMUJamui (3)X  21:44+7:2821:45+7:301m--21148.84681mECRState Highway 72, Bihar
106GHRGidhaur (2)XO  22:04+7:4722:05+7:101m--21163.334106mECRState Highway 18, Bihar
107JAJJhajha (4)  22:25+7:2522:33+7:248m--21174.866143mECRJhajha, Bihar
108STLSimultala (2)X  22:50+7:0222:51+7:021m--21193.566247mERSimultala, Bihar
109JSMEJasidih Junction (5)X  23:14+7:5623:19+7:585m--21218.970271mERJasidih, Jharkhand
110MDPMadhupur Junction (4)X  23:44+7:1723:52+7:138m--21248.085254mER06432-224478, Jharkhand
111CRJChittaranjan (3)  00:32+7:3500:33+7:351m231304.343182mERMihijam, Jharkhand
112ASNAsansol Junction (7)X  01:08+7:5601:18+7:5710m--31329.468113mERDist - bardhaman, West Bengal
113RNGRaniGanj (4)X  01:34+8:0001:35+8:011m--31347.63492mERRaniganj, West Bengal
114UDLAndal Junction (6)  01:48+8:1401:50+8:142m--31354.87386mERAndal, West Bengal
115DGRDurgapur (5)X  02:04+8:1502:08+8:144m--31371.95571mERDurgapur, West Bengal
116BWNBarddhaman Junction (8)  03:17+8:2703:27+8:2510m--31435.45434mERDist - Barddhaman, West Bengal
117BDCBandel Junction (7)  04:42+7:2704:47+7:305m--31502.75114mERdist - HOOGHLY, West Bengal
118CGRChandan Nagar (3)  04:55+7:2704:56+7:281m--31509.44616mERDist -HOOGHLY - 712136, West Bengal
119SRPSerampore (4)  05:13+7:3005:14+7:311m--31522.62311mERdist - hooghly, West Bengal
120HWHKolkata Howrah Junction (23)  06:05+8:14-731542.3-10mERHowrah 711101, West Bengal
Scroll to Top
Scroll to Bottom